Terminal Aerodrome Forecast
Issued by NWS Mt. Holly, NJ

Home | Current Version | Previous Version | Text Only | Print | Product List | Glossary On
Versions: 1 2 3 4 5 6 7 8 9 10 11 12 13 14 15 16 17 18 19
000
FTUS41 KPHI 041135
TAFILG
TAF
KILG 041135Z 0412/0512 07008KT 6SM -SHRA SCT030 OVC060
      TEMPO 0414/0418 3SM SHRA BR BKN030
     FM041900 04009KT 5SM BR BKN035
     FM050100 06007KT P6SM BKN040
     FM050600 34005KT P6SM SCT050=

USA.gov is the U.S. government's official web portal to all federal, state and local government web resources and services.